KLSSOUTHWEST WASHINGTON RGNL
METARs for nearby airports:
N 0 20' KKLS 201956Z 35009KT 10SM CLR 12/08 A3015
S 20 58' KSPB 201953Z 02007KT 10SM CLR 17/08 A3010
S 31 28' KVUO 201953Z 30007KT 10SM CLR 15/08 A3010
N 33 177' KCLS 201955Z VRB04KT 8SM BKN012 12/10 A3017
S 34 30' KPDX 201953Z 28011KT 10SM CLR 15/08 A3011
S 34 208' KHIO 201953Z 10003KT 10SM CLR 17/10 A3010
SE 39 38' KTTD 201953Z 31004KT 10SM CLR 15/09 A3010
W 40 14' KAST 201955Z 36007KT 10SM CLR 12/11 A3012
N 51 207' KOLM 201954Z 03008KT 5SM BR OVC006 10/08 A3018
S 52 199' KUAO 201953Z 02006KT 10SM CLR 18/08 A3010
S 56 162' KMMV 201953Z 09005KT 10SM CLR 17/09 A3009
SW 56 39' KTMK 201955Z 32003KT 10SM CLR 14/10 A3012
N 59 300' KGRF 201858Z 34006KT 9SM OVC006 10/10 A3019
N 63 322' KTCM 201958Z 05006KT 7SM OVC007 10/10 A3018
N 64 537' KPLU 201955Z 00000KT 3SM BR OVC004 09/09 A3018
NW 66 17' KHQM 201953Z 02006KT 5SM HZ OVC009 12/09 A3017
N 67 272' KSHN 201953Z 05005KT 8SM OVC005 10/08 A3017
N 70 294' KTIW 201953Z 01009KT 2SM BR OVC006 10/08 A3018
S 72 213' KSLE 201956Z VRB05KT 9SM CLR 16/08 A3008
E 78 246' KDLS 201953Z 28003KT 9SM CLR 15/05 A3016
N 82 444' KPWT 201956Z 05006KT 4SM BR OVC003 10/09 A3019
N 83 432' KSEA 201953Z 36008KT 3SM HZ OVC006 12/08 A3018
N 87 32' KRNT 201953Z 35008KT 6SM OVC007 11/08 A3018
N 88 21' KBFI 201953Z 04004KT 6SM HZ OVC010 12/08 A3019
S 98 249' KCVO 201956Z 06005KT 10SM CLR 18/08 A3009
TAFs for nearby airports:
S 34 30' KPDX KPDX 201723Z 2018/2118 32006KT 5SM BR BKN006
  FM201900 35005KT P6SM SKC
  FM210100 12007KT P6SM SKC
  FM210700 VRB03KT P6SM SKC
  FM211000 VRB03KT 3SM BR BKN003
S 34 208' KHIO TAF KHIO 201723Z 2018/2118 VRB03KT 6SM BCFG SKC
  FM201900 34006KT P6SM SKC
  FM202100 01006KT P6SM SKC
  FM210300 VRB03KT P6SM SKC
  FM210900 00000KT 1SM BR OVC003
SE 39 38' KTTD KTTD 201723Z 2018/2118 VRB04KT 5SM BR BKN005
  FM201900 VRB04KT P6SM SCT006
  FM202100 09006KT P6SM SKC
  FM210300 09010G18KT P6SM SKC
  FM210900 09010KT P6SM SKC
W 40 14' KAST TAF
  AMD KAST 201904Z 2019/2118 VRB03KT P6SM BKN006
  FM202100 35011KT P6SM SKC
  FM210400 04005KT P6SM SCT350
  FM210600 12004KT 3SM BR OVC002
N 51 207' KOLM TAF KOLM 201743Z 2018/2118 05004KT 2SM BR OVC003
  TEMPO 2018/2021 VRB03KT 1/2SM FG VV002
  FM202100 01003KT 5SM BR BKN009
  FM202200 01004KT P6SM FEW020
  FM210500 VRB03KT 2SM BR BKN004
  FM210600 00000KT 1/4SM FG VV001
S 52 199' KUAO KUAO 201723Z 2018/2118 03005KT P6SM BCFG SCT006
  FM201900 03006KT P6SM SKC
  FM211200 VRB03KT 2SM BR SCT005
N 59 300' KGRF TAF TAF KGRF 201308Z 2013/2119 15006KT 0400 FG BKN002 QNH3021INS
  BECMG 2017/2018 15006KT 1600 BR BKN002 QNH3019INS
  TEMPO 2018/2019 3200 BR
  BECMG 2019/2020 VRB06KT 4800 BR BKN003 QNH3016INS
  BECMG 2020/2021 03009KT 9999 NSW SKC QNH3004INS
  BECMG 2105/2106 15006KT 4800 BR FEW002 QNH3004INS
  BECMG 2107/2108 15006KT 1600 BR FEW002 QNH3003INS
  BECMG 2108/2109 15006KT 0400 FG VV002 QNH3001INS
  BECMG 2017/2018 15006KT 1600 BR VV002 QNH3003INS TX14/2023Z TN08/2013Z
N 63 322' KTCM TAF KTCM 201307Z 2013/2119 15006KT 0400 FG BKN003 QNH3021INS
  BECMG 2017/2018 15006KT 1600 BR BKN003 QNH3019INS
  TEMPO 2018/2019 3200 BR
  BECMG 2019/2020 VRB06KT 4800 BR BKN003 QNH3016INS
  BECMG 2020/2021 03009KT 9999 NSW SKC QNH3004INS
  BECMG 2105/2106 15006KT 4800 BR FEW002 QNH3004INS
  BECMG 2107/2108 15006KT 1600 BR FEW002 QNH3003INS
  BECMG 2108/2109 15006KT 0400 FG VV002 QNH3001INS
  BECMG 2017/2018 15006KT 1600 BR VV002 QNH3003INS TX14/2023Z TN07/2013Z
NW 66 17' KHQM TAF KHQM 201743Z 2018/2118 04006KT 2SM BR OVC003
  FM202100 VRB03KT 5SM BR SCT008
  FM202200 30005KT P6SM SKC
  FM210400 03005KT 5SM BR BKN003
  FM210800 05005KT 2SM BR OVC002
S 72 213' KSLE KSLE 201723Z 2018/2118 36005KT 2SM BR OVC002
  FM201900 36006KT P6SM SKC
  FM210200 33004KT P6SM SKC
  FM211200 00000KT 3SM BR SCT005
E 78 246' KDLS TAF KDLS 201720Z 2018/2118 VRB04KT P6SM SKC
  FM211200 VRB04KT 4SM BR FEW010
  FM211600 VRB04KT P6SM SKC
N 82 444' KPWT TAF KPWT 201743Z 2018/2118 03007KT 1/4SM -DZ FG OVC002
  FM202000 02007KT 2SM BR BKN006
  FM202200 36005KT P6SM FEW020
  FM210600 03004KT 4SM BR SKC
  FM211000 03004KT 1/4SM FG VV001
N 83 432' KSEA TAF
  AMD KSEA 202001Z 2020/2124 35008KT 5SM BR BKN007
  TEMPO 2020/2021 3SM BR OVC006
  FM202200 35008KT P6SM FEW020
  FM210300 03004KT P6SM SCT015
  FM210800 01004KT 3SM BR BKN003
  FM211300 01004KT 1/4SM FG VV001
  FM212000 35006KT 2SM BR BKN008
  FM212200 35007KT P6SM FEW020
N 88 21' KBFI TAF KBFI 201743Z 2018/2118 00000KT 4SM BR BKN006
  FM202000 33004KT 6SM BR SCT010
  FM202100 33005KT P6SM SKC
  FM210300 VRB03KT P6SM SKC
  FM211000 00000KT 3SM BR SCT006
  FM211200 00000KT 2SM BR OVC004
Area forecast:
000
FAUS46 KKCI 101945
FA6W  
SFOC FA 101945
SYNOPSIS AND VFR CLDS/WX
SYNOPSIS VALID UNTIL 111400
CLDS/WX VALID UNTIL 110800...OTLK VALID 110800-111400
WA OR CA AND CSTL WTRS
.
SEE AIRMET SIERRA FOR IFR CONDS AND MTN OBSCN.
TS IMPLY SEV OR GTR TURB SEV ICE LLWS AND IFR CONDS.
NON MSL HGTS DENOTED BY AGL OR CIG.
.
SYNOPSIS...UPR LVL TROF WAS LOCATED NR 130W. MOIST SWLY FLOW
EXTDS FROM PAC NW EWD INTO NRN ROCKIES. HIGH PRES RIDGE WAS OVR
MUCH OF THE REST OF THE AREA. BY 14Z...UPR LVL TROF WILL EXTD
FROM WA-OR SWD INTO CA.  ..STREIB..
.
WA CASCDS WWD
CSTL SXNS
CSTLN-INLAND...SCT-BKN025 BKN035-050 TOPS 120-140. ISOL -SHRA.
   OTLK...MVFR CIGS SHRA BR.
PUGET SOUND-INTR VLY...SCT-BKN020 BKN-OVC035-050 TOPS 160 BKN CI.
   WDLY SCT -SHRA. OTLK...MVFR CIGS SHRA.
CASCDS...BKN-OVC050-070 TOPS FL180. BKN CI ABV. WDLY SCT -SHRA.
   OTLK...MVFR CIGS SHRA.
.
WA E OF CASCDS
CNTRL WA...SCT140 OVC CI. BECMG 2302 SCT080 BKN120 LYRD FL240.
   OTLK...VFR.
ERN WA...SCT-BKN140-160 LYRD FL240. BECMG 0508 BKN080 OVC120
   LYRD FL240 ISOL -SHRA DVLPG. OTLK...VFR.
.
OR CASCDS WWD
CSTL SXNS
CSTLN-INLAND...SCT-BKN020 BKN-OVC035-050 TOPS FL180. WDLY SCT
   -SHRA. OTLK...MVFR CIGS SHRA.
WILLAMETTE VLY/SWRN INTR...SCT-BKN020 BKN-OVC035-050 TOPS FL180.
   WDLY SCT -SHRA. OTLK...MVFR CIGS SHRA.
CASCDS...SCT-BKN060 BKN-OVC080-100 TOPS FL180 ISOL -SHRA.
   OTLK...MVFR CIGS SHRA.
.
OR E OF CASCDS
CNTRL...SCT100-120 BKN150 LYRD FL240. OTLK...VFR.
ERN...SCT130-150 BKN CI. BECMG 0205 OVC120-140 LYRD FL240.
   OTLK...VFR.
.
NRN CA...STS-SAC-TVL LN NWD
CSTL SXNS...
   FOT NWD...SCT025 BKN CI ABV. BECMG 0205 SCT020 OVC050 TOPS
      160. ISOL -SHRA. OTLK...IFR CIGS.
   S OF FOT...SCT-BKN010 TOPS 030-040. OTLK...IFR CIGS.
REST OF AREA...SKC OCNL SCT CI. OCNL VYS 3-5SM FU HZ.
   OTLK...VFR.
SAC VLY...
   NRN AND CNTRL SXNS...SKC. OTLK...VFR.
   SRN SXNS...SKC. OCNL VIS 3-5SM FU HZ. OTLK...MVFR FU HZ.
SHASTA-SISKIYOUS-NERN CA...
NRN SIERRAS...SKC OCNL SCT CI. WINDS SLY G25KT. OTLK...VFR WIND.
.
CNTRL CA
CSTL SXNS...
   CSTLN...SKC OCNL SCT010. BECMG 0508 OCNL CIGS BKN-SCT010 TOPS
      020-030. OTLK...IFR CIGS.
   INLAND...SKC. OTLK...VFR BECMG 1114 IFR CIGS BR.
SAN JOAQUIN VLY...SKC. OTLK...VFR.
SRN SIERRAS..SKC. OTLK...VFR.
.
SRN CA..VBG-NID-60NNW BIH LN SWD
CSTL SXNS...
   CSTLN...
      EXTRM SRN SXNS...SKC. BECMG 0205 SCT010. BECMG 0508 CIGS
         BKN-OVC010 TOPS 030. OTLK...IFR CIGS.
      REST OF AREA...SKC. OTLK...VFR BECMG 0811 IFR CIGS BR.
   INLAND...SKC OCNL FEW CI. OTLK...VFR.
INTR MTNS-MOJAVE-SRN DESERTS...SKC OCNL FEW CI. OTLK...VFR.
.
CSTL WTRS
WA...SCT-BKN035-050 TOPS 100-120. ISOL -SHRA. OTLK...VFR.
OR...
NWRN HLF...SCT-BKN035-050 TOPS 100-120. ISOL -SHRA. OTLK...VFR.
SERN HLF...SCT-BKN025 BKN035-050 TOPS FL180 BKN CI ABV. WDLY SCT
   -SHRA. OTLK...MVFR CIGS SHRA.
CA...
NRN CA...
   FOT NWD...SCT025 BKN CI ABV. BECMG 0205 SCT020 OVC050 TOPS
      160. ISOL -SHRA. OTLK...IFR CIGS.
   S OF FOT...SCT-BKN010 TOPS 030-040. OTLK...IFR CIGS.
CNTRL CA...SCT-BKN010 TOPS 030-040. OTLK...IFR CIGS.
SRN CA...
   OUTER CSTL WTRS...CIGS BKN010-020 TOPS 030-050.
      OTLK...IFR CIGS.
   ADJ CSTL WTRS...SKC. OCNL AGL SCT010. OTLK...VFR BECMG 0811
      IFR CIGS BR.
.
THE AREA FORECAST WILL TERMINATE AT 2359Z ON 10 OCTOBER 2017. IN
PLACE OF THE AREA FORECAST...PLEASE SEE THE GRAPHICAL FORECAST AT
WWW.AVIATIONWEATHER.GOV/GFA. GRAPHICAL AND TEXT AIRMETS WILL
CONTINUE AS REGULARLY SCHEDULED.
....

Shortcut to this page: http://wxbay.com.

Data may contain errors.